Time;durP1;ratioP1;P1;durP2;ratioP2;P2;SDS_P1;SDS_P2;PMS_P1;PMS_P2;Temp;Humidity;BMP_temperature;BMP_pressure;BME280_temperature;BME280_humidity;BME280_pressure;Samples;Min_cycle;Max_cycle;Signal;HPM_P1;HPM_P2
2022/06/04 00:00:33;;;;;;;7.25;5.80;;;21.30;85.40;;;;;;5071221;28;20217;-72
2022/06/04 00:02:59;;;;;;;6.43;5.80;;;21.20;85.60;;;;;;5069153;28;20269;-72
2022/06/04 00:05:27;;;;;;;6.85;6.20;;;21.20;85.40;;;;;;5067572;28;20269;-72
2022/06/04 00:07:55;;;;;;;7.13;6.07;;;21.20;85.10;;;;;;5072426;28;20209;-72
2022/06/04 00:15:56;;;;;;;5.82;5.43;;;21.00;85.60;;;;;;5067945;28;20257;-72
2022/06/04 00:18:23;;;;;;;6.82;5.82;;;21.00;85.80;;;;;;5065902;28;20175;-72
2022/06/04 00:20:50;;;;;;;5.15;4.80;;;21.00;87.60;;;;;;5072171;28;20204;-72
2022/06/04 00:23:16;;;;;;;6.60;5.90;;;21.00;86.80;;;;;;5073694;28;20224;-72
2022/06/04 00:25:47;;;;;;;7.25;5.65;;;20.80;87.80;;;;;;5068404;28;20713;-72
2022/06/04 00:28:14;;;;;;;6.40;5.75;;;20.80;86.80;;;;;;5062758;28;20186;-72
2022/06/04 00:30:40;;;;;;;6.13;5.43;;;20.80;86.90;;;;;;5067037;28;20179;-72
2022/06/04 00:33:06;;;;;;;5.90;5.40;;;20.80;86.40;;;;;;5064635;28;20380;-72
2022/06/04 00:35:34;;;;;;;5.53;5.10;;;20.70;86.90;;;;;;5068159;28;20179;-72
2022/06/04 00:38:00;;;;;;;5.13;4.82;;;20.80;86.80;;;;;;5057837;28;20671;-72
2022/06/04 00:40:50;;;;;;;6.25;5.65;;;20.70;86.50;;;;;;5072631;28;20187;-72
2022/06/04 00:43:17;;;;;;;8.65;5.07;;;20.70;87.10;;;;;;5070796;28;20182;-71
2022/06/04 00:46:20;;;;;;;7.00;5.32;;;20.70;87.00;;;;;;5069155;28;20182;-72
2022/06/04 00:48:46;;;;;;;4.60;4.40;;;20.70;86.50;;;;;;5075059;28;20186;-72
2022/06/04 00:51:12;;;;;;;5.43;5.13;;;20.70;87.10;;;;;;5064521;28;20182;-72
2022/06/04 00:53:38;;;;;;;7.30;4.75;;;20.60;87.00;;;;;;5071005;28;20183;-72
2022/06/04 00:56:36;;;;;;;5.93;5.45;;;20.60;87.50;;;;;;5075533;28;20183;-73
2022/06/04 00:59:17;;;;;;;5.78;5.38;;;20.60;86.90;;;;;;5035647;28;20187;-72
2022/06/04 01:02:01;;;;;;;9.20;5.63;;;20.60;87.30;;;;;;5032617;28;20199;-72
2022/06/04 01:04:51;;;;;;;5.60;5.10;;;20.50;87.00;;;;;;5030535;28;20652;-73
2022/06/04 01:07:58;;;;;;;5.88;5.32;;;20.50;85.90;;;;;;5027894;28;20219;-72
2022/06/04 01:10:37;;;;;;;4.70;4.43;;;20.40;87.70;;;;;;5024987;28;20188;-72
2022/06/04 01:13:08;;;;;;;6.40;5.80;;;20.40;87.10;;;;;;5032684;28;20191;-72
2022/06/04 01:15:58;;;;;;;5.22;4.80;;;20.40;88.30;;;;;;5032442;28;20253;-73
2022/06/04 01:18:30;;;;;;;6.10;5.72;;;20.40;88.10;;;;;;5029238;28;20188;-73
2022/06/04 01:20:58;;;;;;;8.30;6.28;;;20.40;88.60;;;;;;5026759;28;20203;-73
2022/06/04 01:23:33;;;;;;;6.45;5.28;;;20.30;88.70;;;;;;5030360;28;20199;-72
2022/06/04 01:26:23;;;;;;;5.68;5.32;;;20.30;88.70;;;;;;5031959;28;20191;-72
2022/06/04 01:28:58;;;;;;;5.60;5.18;;;20.30;88.10;;;;;;5027915;28;20196;-72
2022/06/04 01:31:28;;;;;;;6.82;4.03;;;20.20;88.00;;;;;;5027697;28;20581;-72
2022/06/04 01:33:59;;;;;;;5.50;5.22;;;20.20;87.80;;;;;;5027942;28;20245;-72
2022/06/04 01:36:58;;;;;;;5.88;5.47;;;20.10;87.50;;;;;;5061531;28;20210;-72
2022/06/04 01:41:03;;;;;;;5.30;4.97;;;20.10;87.20;;;;;;5071457;28;20703;-72
2022/06/04 01:42:13;;;;;;;5.80;5.40;;;20.10;88.10;;;;;;5075863;28;20187;-72
2022/06/04 01:44:40;;;;;;;6.13;5.53;;;20.00;87.50;;;;;;5074232;28;20966;-73
2022/06/04 01:47:06;;;;;;;6.00;5.43;;;20.10;87.40;;;;;;5074797;28;20210;-72
2022/06/04 01:49:44;;;;;;;5.43;5.05;;;20.00;87.50;;;;;;5073760;28;20197;-72
2022/06/04 01:52:16;;;;;;;5.80;5.40;;;20.00;86.80;;;;;;5070449;28;20230;-72
2022/06/04 01:54:49;;;;;;;5.25;4.95;;;20.00;87.60;;;;;;5072820;28;20258;-72
2022/06/04 01:57:38;;;;;;;12.35;4.32;;;20.00;87.50;;;;;;5075331;28;20540;-72
2022/06/04 02:00:13;;;;;;;5.18;4.88;;;20.00;86.90;;;;;;5071168;28;20217;-72
2022/06/04 02:02:57;;;;;;;5.00;4.70;;;19.90;88.50;;;;;;5073987;28;20197;-72
2022/06/04 02:05:33;;;;;;;6.25;5.38;;;19.90;88.20;;;;;;5073190;28;20174;-72
2022/06/04 02:08:01;;;;;;;6.75;6.15;;;19.90;88.70;;;;;;5072200;28;20607;-72
2022/06/04 02:10:30;;;;;;;5.53;5.13;;;19.90;90.40;;;;;;5072567;28;20178;-72
2022/06/04 02:13:02;;;;;;;7.88;6.53;;;19.90;90.30;;;;;;5070190;28;20282;-72
2022/06/04 02:15:35;;;;;;;7.60;5.55;;;19.60;91.30;;;;;;5074287;28;20194;-73
2022/06/04 02:18:02;;;;;;;6.60;6.00;;;19.60;91.00;;;;;;5075846;28;21024;-71
2022/06/04 02:20:28;;;;;;;5.72;5.32;;;19.60;90.80;;;;;;5077739;28;20209;-73
2022/06/04 02:22:54;;;;;;;6.97;6.30;;;19.60;90.50;;;;;;5074592;28;20210;-71
2022/06/04 02:25:21;;;;;;;7.30;6.43;;;19.60;90.40;;;;;;5076418;28;20175;-72
2022/06/04 02:27:49;;;;;;;5.28;4.97;;;19.60;90.40;;;;;;5072543;28;20214;-72
2022/06/04 02:30:15;;;;;;;6.75;5.97;;;19.50;90.40;;;;;;5076908;28;20251;-72
2022/06/04 02:32:50;;;;;;;4.90;4.60;;;19.50;90.50;;;;;;5075413;28;20660;-72
2022/06/04 02:35:39;;;;;;;6.32;5.75;;;19.50;89.80;;;;;;5075276;28;20189;-72
2022/06/04 02:38:19;;;;;;;5.13;4.82;;;19.40;89.50;;;;;;5073302;28;20179;-72
2022/06/04 02:40:54;;;;;;;5.28;4.85;;;19.40;90.00;;;;;;5073158;28;20190;-71
2022/06/04 02:43:30;;;;;;;5.63;5.32;;;19.40;90.60;;;;;;5075879;28;20182;-71
2022/06/04 02:46:06;;;;;;;5.60;5.10;;;19.40;90.70;;;;;;5075813;28;20186;-71
2022/06/04 02:48:46;;;;;;;5.97;5.47;;;19.30;89.50;;;;;;5063720;28;20263;-71
2022/06/04 02:51:17;;;;;;;6.03;5.53;;;19.30;89.80;;;;;;5074472;28;21496;-71
2022/06/04 02:53:43;;;;;;;4.75;4.50;;;19.20;89.30;;;;;;5071595;28;20239;-73
2022/06/04 02:56:13;;;;;;;5.45;5.15;;;19.30;89.60;;;;;;5074075;28;20186;-72
2022/06/04 02:58:42;;;;;;;6.57;5.97;;;19.20;89.10;;;;;;5072544;28;20244;-72
2022/06/04 03:01:10;;;;;;;6.45;4.70;;;19.20;89.00;;;;;;5072243;28;20564;-72
2022/06/04 03:03:37;;;;;;;5.38;5.07;;;19.20;89.10;;;;;;5072244;28;20266;-72
2022/06/04 03:06:07;;;;;;;6.32;5.80;;;19.20;88.90;;;;;;5080405;28;20190;-73
2022/06/04 03:08:35;;;;;;;5.63;5.18;;;19.20;89.30;;;;;;5073299;28;20574;-72
2022/06/04 03:11:01;;;;;;;5.63;5.15;;;19.20;89.10;;;;;;5074013;28;20182;-72
2022/06/04 03:13:27;;;;;;;6.47;4.97;;;19.20;89.40;;;;;;5076407;28;20181;-73
2022/06/04 03:15:53;;;;;;;5.95;5.13;;;19.20;89.80;;;;;;5072230;28;20191;-73
2022/06/04 03:18:19;;;;;;;6.35;5.82;;;19.20;89.60;;;;;;5070558;28;20255;-72
2022/06/04 03:20:45;;;;;;;6.50;5.82;;;19.20;89.60;;;;;;5068501;28;20179;-72
2022/06/04 03:23:11;;;;;;;8.70;5.72;;;19.20;89.70;;;;;;5072925;28;20178;-72
2022/06/04 03:25:38;;;;;;;5.80;5.30;;;19.20;90.70;;;;;;5071112;28;20927;-72
2022/06/04 03:28:05;;;;;;;5.97;5.47;;;19.20;89.70;;;;;;5068688;28;20585;-73
2022/06/04 03:30:32;;;;;;;6.22;5.82;;;19.20;90.30;;;;;;5060782;28;20198;-72
2022/06/04 03:32:57;;;;;;;5.20;4.90;;;19.30;90.10;;;;;;5069026;28;20194;-72
2022/06/04 03:35:24;;;;;;;6.57;5.93;;;19.30;89.80;;;;;;5074139;28;20197;-73
2022/06/04 03:37:50;;;;;;;7.25;5.10;;;19.30;90.30;;;;;;5075494;28;20246;-72
2022/06/04 03:40:16;;;;;;;6.53;5.97;;;19.30;89.70;;;;;;5071446;28;20613;-73
2022/06/04 03:42:41;;;;;;;5.78;5.28;;;19.30;89.30;;;;;;5066675;28;20253;-73
2022/06/04 03:45:10;;;;;;;5.82;5.25;;;19.40;89.90;;;;;;5070106;28;20264;-72
2022/06/04 03:47:37;;;;;;;6.15;5.65;;;19.40;89.70;;;;;;5071295;28;20296;-72
2022/06/04 03:50:16;;;;;;;5.53;5.22;;;19.40;89.80;;;;;;5072302;28;20364;-73
2022/06/04 03:52:43;;;;;;;6.55;5.85;;;19.40;89.20;;;;;;5067291;28;20638;-72
2022/06/04 03:55:10;;;;;;;5.22;4.72;;;19.50;89.30;;;;;;5074356;28;20274;-72
2022/06/04 03:57:41;;;;;;;5.82;5.38;;;19.50;89.40;;;;;;5070084;28;20211;-72
2022/06/04 04:00:10;;;;;;;6.38;5.78;;;19.50;89.20;;;;;;5073380;28;20198;-72
2022/06/04 04:02:36;;;;;;;5.93;5.53;;;19.60;89.30;;;;;;5071616;28;20196;-72
2022/06/04 04:05:04;;;;;;;6.00;5.47;;;19.60;89.50;;;;;;5067851;28;20222;-73
2022/06/04 04:07:31;;;;;;;5.45;4.95;;;19.70;89.20;;;;;;5073890;28;20225;-72
2022/06/04 04:09:56;;;;;;;7.43;5.68;;;19.70;89.40;;;;;;5061273;28;20222;-73
2022/06/04 04:12:22;;;;;;;6.75;6.13;;;19.70;89.30;;;;;;5070893;28;20541;-72
2022/06/04 04:14:48;;;;;;;6.55;5.95;;;19.70;89.80;;;;;;5071968;28;20206;-72
2022/06/04 04:17:13;;;;;;;7.03;6.43;;;19.80;89.30;;;;;;5068876;28;20200;-72
2022/06/04 04:19:39;;;;;;;5.65;5.18;;;19.80;88.90;;;;;;5074398;28;20182;-73
2022/06/04 04:22:05;;;;;;;6.95;6.32;;;19.90;88.70;;;;;;5068346;28;20194;-73
2022/06/04 04:24:30;;;;;;;7.15;6.38;;;19.90;88.40;;;;;;5071232;28;20187;-73
2022/06/04 04:26:56;;;;;;;8.65;7.57;;;20.00;90.10;;;;;;5071544;28;20292;-72
2022/06/04 04:29:22;;;;;;;8.02;7.22;;;20.00;89.80;;;;;;5071303;28;20213;-72
2022/06/04 04:31:48;;;;;;;9.07;6.95;;;20.10;90.10;;;;;;5077098;28;20244;-72
2022/06/04 04:34:14;;;;;;;7.45;6.75;;;20.20;90.20;;;;;;5074769;28;20193;-72
2022/06/04 04:36:40;;;;;;;6.22;5.82;;;20.30;90.00;;;;;;5081751;28;20191;-72
2022/06/04 04:39:06;;;;;;;6.45;5.95;;;20.30;89.50;;;;;;5068601;28;20182;-72
2022/06/04 04:41:31;;;;;;;6.88;6.28;;;20.40;89.20;;;;;;5073768;28;20577;-73
2022/06/04 04:43:57;;;;;;;6.80;6.30;;;20.50;89.60;;;;;;5095615;28;20190;-72
2022/06/04 04:46:23;;;;;;;6.38;5.78;;;20.50;89.50;;;;;;5069978;28;20213;-72
2022/06/04 04:48:49;;;;;;;4.88;4.60;;;20.60;89.20;;;;;;5072520;28;20190;-73
2022/06/04 04:51:19;;;;;;;5.50;5.20;;;20.70;88.80;;;;;;5078748;28;20190;-73
2022/06/04 04:53:46;;;;;;;8.73;7.55;;;20.80;88.30;;;;;;5061262;28;20588;-73
2022/06/04 04:56:14;;;;;;;7.20;6.70;;;20.90;89.20;;;;;;5064015;28;20197;-72
2022/06/04 04:58:40;;;;;;;9.77;8.13;;;21.00;88.70;;;;;;5076264;28;20182;-73
2022/06/04 05:01:23;;;;;;;8.60;7.90;;;21.10;88.20;;;;;;5082664;28;20188;-73
2022/06/04 05:03:49;;;;;;;8.55;7.75;;;21.20;87.30;;;;;;5072647;28;20756;-72
2022/06/04 05:06:17;;;;;;;8.88;8.13;;;21.30;88.20;;;;;;5077563;28;20725;-73
2022/06/04 05:08:44;;;;;;;9.25;8.48;;;21.30;87.70;;;;;;5076641;28;20315;-73
2022/06/04 05:11:13;;;;;;;8.85;7.15;;;21.40;88.50;;;;;;5078724;28;20194;-73
2022/06/04 05:13:39;;;;;;;7.78;6.30;;;21.30;87.60;;;;;;5075146;28;20178;-72
2022/06/04 05:16:05;;;;;;;7.53;6.93;;;21.40;87.60;;;;;;5078811;28;20202;-72
2022/06/04 05:18:31;;;;;;;7.47;6.85;;;21.50;87.50;;;;;;5078057;28;20179;-73
2022/06/04 05:21:11;;;;;;;6.90;6.25;;;21.50;87.10;;;;;;5075810;28;20221;-72
2022/06/04 05:23:38;;;;;;;6.20;5.72;;;21.60;86.50;;;;;;5073881;28;20316;-75
2022/06/04 05:26:04;;;;;;;7.10;6.38;;;21.70;87.10;;;;;;5075671;28;20175;-72
2022/06/04 05:28:30;;;;;;;7.47;6.82;;;21.80;87.30;;;;;;5078595;28;20174;-73
2022/06/04 05:30:55;;;;;;;8.30;7.50;;;21.80;87.60;;;;;;5077231;28;20216;-73
2022/06/04 05:33:21;;;;;;;9.35;7.25;;;21.90;87.00;;;;;;5073278;28;20178;-73
2022/06/04 05:35:47;;;;;;;9.90;7.70;;;22.00;86.60;;;;;;5081659;28;20175;-73
2022/06/04 05:38:12;;;;;;;5.57;5.20;;;22.00;86.60;;;;;;5079335;28;20212;-73
2022/06/04 05:40:38;;;;;;;9.40;8.05;;;22.10;87.00;;;;;;5094685;28;20632;-73
2022/06/04 05:43:04;;;;;;;7.70;7.00;;;22.20;86.20;;;;;;5069153;28;20186;-72
2022/06/04 05:45:30;;;;;;;8.25;7.55;;;22.20;86.40;;;;;;5075678;28;20257;-72
2022/06/04 05:47:55;;;;;;;8.48;7.70;;;22.30;86.00;;;;;;5073331;28;20206;-72
2022/06/04 05:50:21;;;;;;;6.00;5.63;;;22.30;86.40;;;;;;5072451;28;20177;-72
2022/06/04 05:52:47;;;;;;;7.82;7.18;;;22.40;86.10;;;;;;5071268;28;20182;-73
2022/06/04 05:55:12;;;;;;;6.82;5.90;;;22.50;85.70;;;;;;5073181;28;20171;-73
2022/06/04 05:57:38;;;;;;;5.85;5.47;;;22.50;86.00;;;;;;5071575;28;20265;-73
2022/06/04 06:00:08;;;;;;;5.45;5.07;;;22.60;85.90;;;;;;5073638;28;20174;-74
2022/06/04 06:02:37;;;;;;;6.55;6.13;;;22.70;85.70;;;;;;5074373;28;20187;-74
2022/06/04 06:05:04;;;;;;;7.90;6.07;;;22.80;84.80;;;;;;5072399;28;20558;-74
2022/06/04 06:07:30;;;;;;;5.97;5.63;;;22.90;85.00;;;;;;5074521;28;20279;-75
2022/06/04 06:09:56;;;;;;;4.90;4.70;;;22.90;84.90;;;;;;5068706;28;20261;-74
2022/06/04 06:12:22;;;;;;;6.20;5.80;;;23.00;84.80;;;;;;5069892;28;20258;-74
2022/06/04 06:14:48;;;;;;;6.47;6.00;;;23.00;84.50;;;;;;5069920;28;20277;-74
2022/06/04 06:17:13;;;;;;;6.07;5.60;;;23.10;83.90;;;;;;5071692;28;20240;-74
2022/06/04 06:19:39;;;;;;;9.35;6.55;;;23.20;84.30;;;;;;5067072;28;20182;-74
2022/06/04 06:22:05;;;;;;;6.32;5.70;;;23.20;83.70;;;;;;5072008;28;20269;-74
2022/06/04 06:24:30;;;;;;;6.05;5.65;;;23.30;83.80;;;;;;5069557;28;20258;-74
2022/06/04 06:26:58;;;;;;;7.80;6.78;;;23.30;83.10;;;;;;5069530;28;20297;-73
2022/06/04 06:29:30;;;;;;;8.45;6.50;;;23.30;82.50;;;;;;5068861;28;20296;-73
2022/06/04 06:31:57;;;;;;;6.18;5.63;;;23.40;82.10;;;;;;5070218;28;20190;-72
2022/06/04 06:34:24;;;;;;;5.55;5.15;;;23.40;82.30;;;;;;5065218;28;20228;-74
2022/06/04 06:36:50;;;;;;;10.63;6.05;;;23.40;82.60;;;;;;5070140;28;20193;-74
2022/06/04 06:39:16;;;;;;;5.75;5.00;;;23.40;82.40;;;;;;5075744;28;20178;-74
2022/06/04 06:41:42;;;;;;;5.30;5.05;;;23.40;82.50;;;;;;5077745;28;20760;-75
2022/06/04 06:44:10;;;;;;;5.80;5.20;;;23.40;82.60;;;;;;5076203;28;20175;-75
2022/06/04 06:46:40;;;;;;;6.07;5.57;;;23.40;82.60;;;;;;5071906;28;20299;-75
2022/06/04 06:49:13;;;;;;;6.00;5.45;;;23.40;82.00;;;;;;5089483;28;20934;-75
2022/06/04 06:51:47;;;;;;;5.47;4.97;;;23.50;81.80;;;;;;5060960;28;20278;-75
2022/06/04 06:54:15;;;;;;;5.68;4.55;;;23.50;82.10;;;;;;5074184;28;20257;-74
2022/06/04 06:56:43;;;;;;;5.93;5.43;;;23.50;82.60;;;;;;5076550;28;20656;-74
2022/06/04 06:59:09;;;;;;;5.53;5.22;;;23.60;82.70;;;;;;5074446;28;20174;-74
2022/06/04 07:01:36;;;;;;;5.90;5.40;;;23.60;82.90;;;;;;5068323;28;20191;-73
2022/06/04 07:04:02;;;;;;;5.28;4.95;;;23.70;83.00;;;;;;5069061;28;20178;-74
2022/06/04 07:06:39;;;;;;;4.85;4.65;;;23.80;83.80;;;;;;5075549;28;20238;-73
2022/06/04 07:09:12;;;;;;;9.15;4.97;;;23.80;82.20;;;;;;5072676;28;20682;-73
2022/06/04 07:11:38;;;;;;;5.93;5.40;;;23.90;82.00;;;;;;5078582;28;20189;-73
2022/06/04 07:14:04;;;;;;;5.80;5.32;;;24.00;82.10;;;;;;5074758;28;20178;-74
2022/06/04 07:16:29;;;;;;;5.57;4.40;;;24.20;82.00;;;;;;5072497;28;20198;-73
2022/06/04 07:18:55;;;;;;;6.75;5.30;;;24.20;82.10;;;;;;5063432;28;20877;-73
2022/06/04 07:21:21;;;;;;;4.85;4.60;;;24.30;82.30;;;;;;5074096;28;20190;-73
2022/06/04 07:23:47;;;;;;;5.22;5.00;;;24.50;82.40;;;;;;5071327;28;20657;-74
2022/06/04 07:26:13;;;;;;;4.75;4.45;;;24.70;82.00;;;;;;5065495;28;20668;-74
2022/06/04 07:28:40;;;;;;;5.35;4.95;;;24.80;81.60;;;;;;5072697;28;20182;-74
2022/06/04 07:31:08;;;;;;;5.13;4.72;;;25.00;81.70;;;;;;5076176;28;20186;-74
2022/06/04 07:33:34;;;;;;;4.72;4.38;;;25.20;81.10;;;;;;5074052;28;20183;-73
2022/06/04 07:36:00;;;;;;;4.93;4.43;;;25.30;81.00;;;;;;5071031;28;20175;-74
2022/06/04 07:38:26;;;;;;;4.85;4.55;;;25.40;81.00;;;;;;5074894;28;20186;-73
2022/06/04 07:40:51;;;;;;;4.00;3.67;;;25.60;81.10;;;;;;5073469;28;20653;-73
2022/06/04 07:43:17;;;;;;;4.18;3.80;;;25.80;80.00;;;;;;5067431;28;20179;-72
2022/06/04 07:45:43;;;;;;;4.95;3.63;;;26.00;79.20;;;;;;5068378;28;20187;-72
2022/06/04 07:48:10;;;;;;;4.30;4.00;;;26.20;77.20;;;;;;5074735;28;20214;-72
2022/06/04 07:50:38;;;;;;;3.70;3.22;;;26.30;77.00;;;;;;5064951;28;20176;-73
2022/06/04 07:53:04;;;;;;;4.35;4.15;;;26.40;77.70;;;;;;5066291;28;20210;-73
2022/06/04 07:55:30;;;;;;;4.85;4.45;;;26.50;77.80;;;;;;5070129;28;20225;-72
2022/06/04 07:57:56;;;;;;;4.28;4.07;;;26.60;76.90;;;;;;5070006;28;20179;-72
2022/06/04 08:00:23;;;;;;;4.20;3.95;;;26.80;77.20;;;;;;5070811;28;20660;-72
2022/06/04 08:02:52;;;;;;;3.83;3.72;;;27.00;76.90;;;;;;5071193;28;20698;-73
2022/06/04 08:05:18;;;;;;;4.00;3.80;;;27.30;75.20;;;;;;5074038;28;20179;-73
2022/06/04 08:07:44;;;;;;;7.90;4.57;;;27.40;74.40;;;;;;5070125;28;20215;-72
2022/06/04 08:10:11;;;;;;;4.28;3.97;;;27.50;74.20;;;;;;5067135;28;20189;-76
2022/06/04 08:12:43;;;;;;;4.05;3.85;;;27.60;75.00;;;;;;5065897;28;20193;-73
2022/06/04 08:15:09;;;;;;;4.18;3.55;;;27.80;75.40;;;;;;5063926;28;20629;-75
2022/06/04 08:17:35;;;;;;;3.85;3.65;;;28.00;74.50;;;;;;5069794;28;20187;-76
2022/06/04 08:20:01;;;;;;;5.80;4.13;;;28.10;73.70;;;;;;5071343;28;20179;-74
2022/06/04 08:22:27;;;;;;;4.20;3.90;;;28.20;74.20;;;;;;5067431;28;20193;-74
2022/06/04 08:24:53;;;;;;;4.53;3.90;;;28.40;73.50;;;;;;5070247;28;20178;-74
2022/06/04 08:27:18;;;;;;;8.45;3.42;;;28.50;72.10;;;;;;5065886;28;20596;-74
2022/06/04 08:29:44;;;;;;;3.90;3.50;;;28.70;71.60;;;;;;5064253;28;20206;-76
2022/06/04 08:32:11;;;;;;;4.10;3.90;;;28.70;72.20;;;;;;5063291;28;20270;-75
2022/06/04 08:34:37;;;;;;;4.22;3.83;;;28.80;71.50;;;;;;5069147;28;20187;-75
2022/06/04 08:37:04;;;;;;;4.03;3.72;;;28.80;71.00;;;;;;5065994;28;20183;-76
2022/06/04 08:39:30;;;;;;;6.80;3.75;;;28.90;71.50;;;;;;5085690;28;20184;-75
2022/06/04 08:42:11;;;;;;;4.32;4.00;;;29.00;71.50;;;;;;5066808;28;20187;-75
2022/06/04 08:44:44;;;;;;;4.45;4.10;;;29.10;70.90;;;;;;5062834;28;20183;-75
2022/06/04 08:47:28;;;;;;;3.95;3.65;;;29.10;69.90;;;;;;5070906;28;21111;-75
2022/06/04 08:50:15;;;;;;;3.47;3.33;;;29.10;69.80;;;;;;5069226;28;20185;-75
2022/06/04 08:52:49;;;;;;;3.95;3.67;;;29.10;69.60;;;;;;5070949;28;20646;-75
2022/06/04 08:58:11;;;;;;;3.47;2.90;;;29.20;69.20;;;;;;5068867;28;20205;-75
2022/06/04 09:00:52;;;;;;;3.65;3.40;;;29.20;69.10;;;;;;5066964;28;20606;-74
2022/06/04 09:03:39;;;;;;;2.35;2.30;;;29.30;68.30;;;;;;5067789;28;20189;-75
2022/06/04 09:06:26;;;;;;;2.88;2.78;;;29.40;68.50;;;;;;5065202;28;20583;-75
2022/06/04 09:09:25;;;;;;;3.05;2.85;;;29.40;67.10;;;;;;5065357;28;20852;-75
2022/06/04 09:11:57;;;;;;;2.85;2.60;;;29.40;65.90;;;;;;5067418;28;20186;-73
2022/06/04 09:14:44;;;;;;;2.88;2.55;;;29.40;67.40;;;;;;5065899;28;20240;-74
2022/06/04 09:17:35;;;;;;;3.05;2.80;;;29.40;67.00;;;;;;5067166;28;20235;-74
2022/06/04 09:20:02;;;;;;;2.70;2.65;;;29.50;67.30;;;;;;5018348;28;20204;-74
2022/06/04 09:22:38;;;;;;;2.97;2.88;;;29.70;67.90;;;;;;5020118;28;20243;-74
2022/06/04 09:25:04;;;;;;;3.05;2.80;;;29.80;67.60;;;;;;5018746;28;20783;-75
2022/06/04 09:27:39;;;;;;;3.10;2.90;;;29.90;66.90;;;;;;5021199;28;20211;-76
2022/06/04 09:30:27;;;;;;;4.00;2.42;;;30.00;66.70;;;;;;5018742;28;20318;-75
2022/06/04 09:33:23;;;;;;;2.90;2.80;;;30.10;65.50;;;;;;5015582;28;20199;-76
2022/06/04 09:35:54;;;;;;;3.65;3.35;;;30.20;65.80;;;;;;5014764;28;20242;-75
2022/06/04 09:38:26;;;;;;;2.42;2.42;;;30.30;65.70;;;;;;5022146;28;20276;-74
2022/06/04 09:41:01;;;;;;;2.75;2.65;;;30.60;65.40;;;;;;5011289;28;20993;-74
2022/06/04 09:43:27;;;;;;;5.22;2.63;;;30.60;63.50;;;;;;5018945;28;20200;-74
2022/06/04 09:46:02;;;;;;;3.33;3.05;;;30.70;63.50;;;;;;5016868;28;20678;-74
2022/06/04 09:48:43;;;;;;;3.33;3.13;;;30.80;64.50;;;;;;5019762;28;20198;-74
2022/06/04 09:51:21;;;;;;;2.83;2.72;;;31.00;65.00;;;;;;5020388;28;20234;-75
2022/06/04 09:53:50;;;;;;;3.97;2.97;;;31.30;63.60;;;;;;5013568;28;20194;-75
2022/06/04 09:56:36;;;;;;;3.55;2.80;;;31.40;62.50;;;;;;5030225;28;20187;-74
2022/06/04 09:59:21;;;;;;;4.65;3.58;;;31.60;63.70;;;;;;5068300;28;20194;-76
2022/06/04 10:02:19;;;;;;;4.25;3.00;;;31.70;61.60;;;;;;5066685;28;20242;-76
2022/06/04 10:04:58;;;;;;;2.60;2.53;;;31.70;61.70;;;;;;5064385;28;20207;-76
2022/06/04 10:07:38;;;;;;;3.33;3.08;;;31.70;61.90;;;;;;5075678;28;20237;-78
2022/06/04 10:10:42;;;;;;;3.17;2.95;;;31.80;62.50;;;;;;5064960;28;20274;-77
2022/06/04 10:16:37;;;;;;;2.53;2.42;;;32.00;60.60;;;;;;5062708;28;20849;-78
2022/06/04 10:19:13;;;;;;;2.97;2.78;;;32.10;60.40;;;;;;5067180;28;20220;-77
2022/06/04 10:21:41;;;;;;;2.38;2.28;;;32.10;59.80;;;;;;5063882;28;20182;-77
2022/06/04 10:24:31;;;;;;;4.28;2.53;;;32.20;60.80;;;;;;5076710;28;20171;-77
2022/06/04 10:27:16;;;;;;;2.90;2.80;;;32.30;59.60;;;;;;5076605;28;20202;-77
2022/06/04 10:29:59;;;;;;;3.00;3.00;;;32.50;61.10;;;;;;5076057;28;20278;-78
2022/06/04 10:33:12;;;;;;;5.22;3.28;;;32.70;60.80;;;;;;5073068;28;20186;-78
2022/06/04 10:35:37;;;;;;;3.97;3.67;;;32.80;60.20;;;;;;5071301;28;20182;-77
2022/06/04 10:38:26;;;;;;;5.20;3.53;;;32.80;59.10;;;;;;5065070;28;20187;-75
2022/06/04 10:41:26;;;;;;;3.50;3.30;;;32.70;59.30;;;;;;5072091;28;20256;-75
2022/06/04 10:43:58;;;;;;;2.85;2.85;;;32.70;60.00;;;;;;5065701;28;20174;-75
2022/06/04 10:46:38;;;;;;;3.65;3.47;;;32.80;61.40;;;;;;5074099;28;20225;-75
2022/06/04 10:49:12;;;;;;;3.15;2.95;;;32.80;60.50;;;;;;5075928;28;20185;-75
2022/06/04 10:52:03;;;;;;;6.65;3.72;;;32.50;60.00;;;;;;5065705;28;20494;-75
2022/06/04 10:55:01;;;;;;;3.45;3.20;;;32.60;59.60;;;;;;5073597;28;20298;-75
2022/06/04 10:57:52;;;;;;;2.90;2.80;;;32.90;59.20;;;;;;5064169;28;20189;-76
2022/06/04 11:00:22;;;;;;;3.83;3.63;;;33.20;59.30;;;;;;5009999;28;20641;-75
2022/06/04 11:02:51;;;;;;;4.15;3.85;;;33.70;59.10;;;;;;5013641;28;20200;-75
2022/06/04 11:05:49;;;;;;;3.35;3.25;;;34.50;56.90;;;;;;5011804;28;20191;-76
2022/06/04 11:08:38;;;;;;;3.88;3.67;;;34.80;54.70;;;;;;4902244;29;20813;-76
2022/06/04 11:11:21;;;;;;;3.97;3.80;;;35.30;56.60;;;;;;4901877;29;20244;-75
2022/06/04 11:13:58;;;;;;;3.55;3.33;;;35.60;53.90;;;;;;4903015;29;20191;-75
2022/06/04 11:16:34;;;;;;;4.55;3.80;;;35.80;54.40;;;;;;4902837;29;20199;-75
2022/06/04 11:19:23;;;;;;;4.82;3.67;;;36.30;54.60;;;;;;4902856;29;20241;-74
2022/06/04 11:22:13;;;;;;;3.47;3.17;;;37.00;54.30;;;;;;4900927;29;20733;-75
2022/06/04 11:24:48;;;;;;;3.47;3.45;;;37.10;53.80;;;;;;4902936;29;20223;-75
2022/06/04 11:27:26;;;;;;;3.33;3.22;;;37.60;54.20;;;;;;4902315;29;20215;-74
2022/06/04 11:29:54;;;;;;;5.80;3.90;;;38.20;53.60;;;;;;4902268;29;20745;-75
2022/06/04 11:32:22;;;;;;;3.28;3.15;;;38.20;53.50;;;;;;4902996;29;20687;-76
2022/06/04 11:35:10;;;;;;;4.03;3.83;;;38.40;54.50;;;;;;4902389;29;20678;-72
2022/06/04 11:38:03;;;;;;;3.75;3.65;;;38.70;50.60;;;;;;4933420;28;20253;-75
2022/06/04 11:41:03;;;;;;;3.80;3.50;;;39.00;50.30;;;;;;4958183;28;20186;-75
2022/06/04 11:43:54;;;;;;;4.75;4.20;;;39.10;50.40;;;;;;4975812;28;20190;-75
2022/06/04 11:46:35;;;;;;;4.05;3.95;;;38.40;50.00;;;;;;5061795;28;20991;-75
2022/06/04 11:49:32;;;;;;;4.90;4.50;;;38.00;51.50;;;;;;5059614;28;20206;-77
2022/06/04 11:52:23;;;;;;;4.28;4.18;;;37.60;51.60;;;;;;5058801;28;20736;-76
2022/06/04 11:55:29;;;;;;;4.57;3.97;;;37.60;52.60;;;;;;5054831;28;20631;-76
2022/06/04 11:58:14;;;;;;;4.00;3.88;;;37.60;51.70;;;;;;5058537;28;20217;-76
2022/06/04 12:00:44;;;;;;;4.82;4.60;;;37.30;52.30;;;;;;5055671;28;20274;-76
2022/06/04 12:03:23;;;;;;;4.75;4.35;;;37.00;51.80;;;;;;5056783;28;20178;-76
2022/06/04 12:06:07;;;;;;;5.90;5.30;;;36.70;52.60;;;;;;5055562;28;20733;-76
2022/06/04 12:08:41;;;;;;;5.50;4.68;;;36.30;54.00;;;;;;5055695;28;20222;-77
2022/06/04 12:11:25;;;;;;;5.40;5.10;;;36.00;55.50;;;;;;5047747;28;20181;-76
2022/06/04 12:14:01;;;;;;;4.80;4.38;;;35.80;54.10;;;;;;5083294;28;20194;-77
2022/06/04 12:16:53;;;;;;;4.72;4.53;;;35.70;55.90;;;;;;5057498;28;20221;-76
2022/06/04 12:25:37;;;;;;;5.28;4.80;;;34.70;57.10;;;;;;5053158;28;20197;-76
2022/06/04 12:28:24;;;;;;;5.70;5.40;;;34.40;58.70;;;;;;5050851;28;20657;-76
2022/06/04 12:30:50;;;;;;;5.70;5.25;;;34.20;57.90;;;;;;5054862;28;20219;-76
2022/06/04 12:33:55;;;;;;;5.15;4.95;;;34.00;58.40;;;;;;5050938;28;20191;-76
2022/06/04 12:36:28;;;;;;;5.47;5.18;;;34.10;58.00;;;;;;4993222;28;20573;-79
2022/06/04 12:39:26;;;;;;;5.22;4.90;;;34.30;58.00;;;;;;4980066;28;20189;-80
2022/06/04 12:41:55;;;;;;;4.90;4.70;;;34.40;58.20;;;;;;4955641;28;20608;-79
2022/06/04 12:44:22;;;;;;;5.30;5.10;;;34.70;56.90;;;;;;4942951;28;20575;-79
2022/06/04 12:46:49;;;;;;;5.53;5.18;;;34.90;58.30;;;;;;4947188;28;20745;-79
2022/06/04 12:49:29;;;;;;;4.80;4.60;;;35.00;57.80;;;;;;4943302;28;20665;-79
2022/06/04 12:52:29;;;;;;;4.32;4.18;;;35.10;56.50;;;;;;4954709;28;20197;-79
2022/06/04 12:55:29;;;;;;;5.47;4.47;;;35.20;56.10;;;;;;4869109;29;20209;-78
2022/06/04 12:58:20;;;;;;;4.22;4.03;;;35.40;56.80;;;;;;4775750;30;20261;-81
2022/06/04 13:01:05;;;;;;;4.28;4.07;;;35.70;56.60;;;;;;4773605;29;20646;-79
2022/06/04 13:03:41;;;;;;;5.82;3.72;;;36.80;55.90;;;;;;4775588;29;20778;-80
2022/06/04 13:06:32;;;;;;;5.00;4.70;;;36.80;55.90;;;;;;4779564;29;20295;-78
2022/06/04 13:09:05;;;;;;;4.20;4.00;;;37.40;55.20;;;;;;4830090;29;20255;-78
2022/06/04 13:11:54;;;;;;;4.43;4.30;;;38.30;52.80;;;;;;4831508;29;20198;-76
2022/06/04 13:14:37;;;;;;;5.25;4.88;;;38.80;54.00;;;;;;4843662;29;20311;-78
2022/06/04 13:17:24;;;;;;;5.03;4.72;;;39.10;52.00;;;;;;4833167;29;20298;-78
2022/06/04 13:19:55;;;;;;;5.95;5.65;;;39.20;51.00;;;;;;4853054;29;20676;-77
2022/06/04 13:22:29;;;;;;;5.30;4.95;;;38.90;52.00;;;;;;4860913;29;20193;-76
2022/06/04 13:24:59;;;;;;;5.57;4.95;;;38.60;51.70;;;;;;4856536;29;20754;-77
2022/06/04 13:27:52;;;;;;;5.35;5.05;;;38.20;53.30;;;;;;4848785;29;20266;-77
2022/06/04 13:30:32;;;;;;;5.03;4.70;;;38.00;52.80;;;;;;4872690;29;20204;-77
2022/06/04 13:33:22;;;;;;;4.10;3.80;;;38.20;52.70;;;;;;4920881;28;20203;-76
2022/06/04 13:35:53;;;;;;;4.80;4.60;;;38.10;52.60;;;;;;4994332;28;20200;-77
2022/06/04 13:38:29;;;;;;;4.97;4.60;;;38.30;52.60;;;;;;4996008;28;20193;-75